createdAt,value
2023-01-09T00:02:04.564Z,98840.59
2023-01-09T00:04:31.560Z,98830.06
2023-01-09T00:06:58.326Z,98823.22
2023-01-09T00:09:25.275Z,98828.34
2023-01-09T00:11:53.044Z,98817.56
2023-01-09T00:14:19.982Z,98813.22
2023-01-09T00:16:47.122Z,98809.50
2023-01-09T00:19:14.223Z,98808.00
2023-01-09T00:21:41.168Z,98809.66
2023-01-09T00:24:08.531Z,98799.41
2023-01-09T00:26:35.804Z,98792.16
2023-01-09T00:29:02.925Z,98787.41
2023-01-09T00:31:29.734Z,98785.44
2023-01-09T00:33:59.695Z,98791.06
2023-01-09T00:36:26.951Z,98789.38
2023-01-09T00:38:54.133Z,98773.06
2023-01-09T00:41:29.108Z,98769.16
2023-01-09T00:44:02.116Z,98774.78
2023-01-09T00:46:34.483Z,98770.53
2023-01-09T00:49:05.616Z,98759.25
2023-01-09T00:51:32.370Z,98752.16
2023-01-09T00:53:59.883Z,98745.91
2023-01-09T00:56:26.673Z,98733.44
2023-01-09T00:58:54.856Z,98727.22
2023-01-09T01:01:21.871Z,98724.38
2023-01-09T01:03:48.711Z,98721.56
2023-01-09T01:06:34.097Z,98718.88
2023-01-09T01:09:00.861Z,98719.06
2023-01-09T01:11:27.671Z,98718.78
2023-01-09T01:13:54.546Z,98712.44
2023-01-09T01:16:21.373Z,98714.25
2023-01-09T01:18:48.767Z,98714.28
2023-01-09T01:21:15.856Z,98700.75
2023-01-09T01:23:43.291Z,98707.56
2023-01-09T01:26:12.963Z,98706.75
2023-01-09T01:28:40.482Z,98711.31
2023-01-09T01:31:07.535Z,98711.78
2023-01-09T01:33:34.999Z,98700.16
2023-01-09T01:36:07.245Z,98701.72
2023-01-09T01:38:34.118Z,98697.06
2023-01-09T01:41:02.393Z,98692.56
2023-01-09T01:43:49.162Z,98701.38
2023-01-09T01:46:18.040Z,98697.59
2023-01-09T01:48:46.402Z,98690.25
2023-01-09T01:51:15.763Z,98686.03
2023-01-09T01:53:47.321Z,98686.31
2023-01-09T01:56:22.072Z,98679.63
2023-01-09T01:58:55.148Z,98676.19
2023-01-09T02:01:25.787Z,98667.13
2023-01-09T02:03:55.581Z,98656.59
2023-01-09T02:06:22.435Z,98657.38
2023-01-09T02:08:50.707Z,98649.22
2023-01-09T02:11:19.755Z,98645.53
2023-01-09T02:13:47.178Z,98643.56
2023-01-09T02:16:54.262Z,98638.34
2023-01-09T02:19:21.085Z,98633.75
2023-01-09T02:22:00.150Z,98620.91
2023-01-09T02:25:12.424Z,98613.84
2023-01-09T02:28:07.489Z,98602.78
2023-01-09T02:30:44.619Z,98586.25
2023-01-09T02:33:49.945Z,98610.50
2023-01-09T02:36:28.736Z,98599.47
2023-01-09T02:39:30.394Z,98605.41
2023-01-09T02:42:13.517Z,98607.13
2023-01-09T02:44:43.041Z,98605.53
2023-01-09T02:47:15.740Z,98605.69
2023-01-09T02:49:49.417Z,98594.69
2023-01-09T02:52:22.168Z,98586.75
2023-01-09T02:55:06.020Z,98586.88
2023-01-09T02:57:32.695Z,98577.66
2023-01-09T03:00:02.383Z,98571.13
2023-01-09T03:02:54.393Z,98570.72
2023-01-09T03:05:29.839Z,98566.59
2023-01-09T03:08:13.166Z,98557.53
2023-01-09T03:10:42.231Z,98552.41
2023-01-09T03:13:14.298Z,98550.72
2023-01-09T03:15:46.016Z,98560.94
2023-01-09T03:18:16.349Z,98559.53
2023-01-09T03:20:46.840Z,98553.28
2023-01-09T03:23:13.523Z,98549.19
2023-01-09T03:25:40.385Z,98553.56
2023-01-09T03:28:13.199Z,98550.00
2023-01-09T03:30:40.032Z,98543.38
2023-01-09T03:33:06.855Z,98544.50
2023-01-09T03:35:33.480Z,98548.91
2023-01-09T03:38:00.319Z,98551.59
2023-01-09T03:40:27.042Z,98553.28
2023-01-09T03:42:54.284Z,98552.59
2023-01-09T03:45:20.993Z,98545.63
2023-01-09T03:47:47.738Z,98544.50
2023-01-09T03:50:15.010Z,98541.94
2023-01-09T03:52:41.835Z,98537.94
2023-01-09T03:55:08.831Z,98539.38
2023-01-09T03:57:35.577Z,98541.06
2023-01-09T04:00:02.375Z,98544.50
2023-01-09T04:02:29.141Z,98553.28
2023-01-09T04:04:55.788Z,98543.34
2023-01-09T04:07:22.496Z,98551.03
2023-01-09T04:09:49.150Z,98556.97
2023-01-09T04:12:15.865Z,98553.56
2023-01-09T04:14:42.480Z,98553.00
2023-01-09T04:17:09.201Z,98547.88
2023-01-09T04:19:36.003Z,98552.41
2023-01-09T04:22:02.667Z,98569.75
2023-01-09T04:24:29.569Z,98565.94
2023-01-09T04:26:56.332Z,98555.25
2023-01-09T04:29:22.973Z,98570.88
2023-01-09T04:31:49.766Z,98561.81
2023-01-09T04:34:16.618Z,98564.63
2023-01-09T04:36:43.360Z,98563.63
2023-01-09T04:39:10.439Z,98565.34
2023-01-09T04:41:49.297Z,98565.78
2023-01-09T04:44:17.992Z,98563.66
2023-01-09T04:46:45.026Z,98560.94
2023-01-09T04:49:11.717Z,98550.41
2023-01-09T04:51:38.514Z,98562.94
2023-01-09T04:54:05.787Z,98562.34
2023-01-09T04:56:32.536Z,98558.13
2023-01-09T04:58:59.353Z,98559.25
2023-01-09T05:01:26.398Z,98555.00
2023-01-09T05:03:53.412Z,98558.53
2023-01-09T05:06:20.369Z,98555.84
2023-01-09T05:08:47.281Z,98554.25
2023-01-09T05:11:14.128Z,98560.66
2023-01-09T05:13:41.331Z,98557.84
2023-01-09T05:16:08.753Z,98558.66
2023-01-09T05:18:35.737Z,98548.31
2023-01-09T05:21:02.684Z,98563.78
2023-01-09T05:23:29.623Z,98556.13
2023-01-09T05:25:56.519Z,98550.31
2023-01-09T05:28:23.475Z,98563.78
2023-01-09T05:30:50.590Z,98554.13
2023-01-09T05:33:17.397Z,98543.34
2023-01-09T05:35:44.308Z,98551.59
2023-01-09T05:38:11.887Z,98545.19
2023-01-09T05:40:40.592Z,98546.75
2023-01-09T05:43:08.098Z,98545.91
2023-01-09T05:45:35.598Z,98539.53
2023-01-09T05:48:02.452Z,98533.25
2023-01-09T05:50:29.406Z,98535.13
2023-01-09T05:52:56.495Z,98536.94
2023-01-09T05:55:23.544Z,98533.53
2023-01-09T05:57:51.093Z,98529.84
2023-01-09T06:00:18.699Z,98535.97
2023-01-09T06:02:45.913Z,98523.50
2023-01-09T06:05:12.775Z,98517.81
2023-01-09T06:07:41.084Z,98521.22
2023-01-09T06:10:13.500Z,98512.84
2023-01-09T06:12:46.649Z,98523.88
2023-01-09T06:18:40.034Z,98521.78
2023-01-09T06:21:07.440Z,98520.63
2023-01-09T06:23:34.436Z,98522.06
2023-01-09T06:26:03.829Z,98523.78
2023-01-09T06:28:31.146Z,98520.38
2023-01-09T06:30:58.183Z,98516.22
2023-01-09T06:33:25.181Z,98494.41
2023-01-09T06:35:54.275Z,98498.38
2023-01-09T06:38:21.577Z,98496.25
2023-01-09T06:40:48.883Z,98492.50
2023-01-09T06:43:16.425Z,98510.13
2023-01-09T06:45:43.939Z,98542.22
2023-01-09T06:48:29.779Z,98542.75
2023-01-09T06:50:59.697Z,98532.25
2023-01-09T06:53:27.175Z,98513.28
2023-01-09T06:55:54.044Z,98487.16
2023-01-09T06:58:21.134Z,98491.25
2023-01-09T07:00:49.448Z,98503.19
2023-01-09T07:03:20.679Z,98494.66
2023-01-09T07:05:47.602Z,98491.69
2023-01-09T07:08:15.211Z,98485.72
2023-01-09T07:10:43.028Z,98496.78
2023-01-09T07:13:10.073Z,98499.63
2023-01-09T07:15:36.920Z,98509.44
2023-01-09T07:18:03.849Z,98503.63
2023-01-09T07:20:30.696Z,98508.72
2023-01-09T07:22:57.447Z,98505.28
2023-01-09T07:25:24.112Z,98508.16
2023-01-09T07:27:50.817Z,98511.13
2023-01-09T07:30:17.810Z,98515.25
2023-01-09T07:32:44.672Z,98517.81
2023-01-09T07:35:11.455Z,98508.69
2023-01-09T07:37:38.427Z,98515.53
2023-01-09T07:40:05.626Z,98514.53
2023-01-09T07:42:32.676Z,98526.19
2023-01-09T07:44:59.423Z,98524.03
2023-01-09T07:47:26.303Z,98537.41
2023-01-09T07:49:53.041Z,98532.88
2023-01-09T07:52:19.811Z,98535.97
2023-01-09T07:54:46.637Z,98542.38
2023-01-09T07:57:13.314Z,98550.44
2023-01-09T07:59:40.045Z,98562.63
2023-01-09T08:02:07.269Z,98562.78
2023-01-09T08:04:34.093Z,98562.09
2023-01-09T08:07:03.161Z,98576.25
2023-01-09T08:09:30.586Z,98567.19
2023-01-09T08:11:57.745Z,98560.66
2023-01-09T08:14:24.529Z,98562.09
2023-01-09T08:16:54.316Z,98560.81
2023-01-09T08:19:22.295Z,98564.63
2023-01-09T08:21:48.987Z,98570.16
2023-01-09T08:24:15.877Z,98572.41
2023-01-09T08:26:42.638Z,98579.81
2023-01-09T08:29:09.629Z,98590.16
2023-01-09T08:31:36.887Z,98584.47
2023-01-09T08:34:03.763Z,98587.03
2023-01-09T08:36:30.662Z,98597.09
2023-01-09T08:38:57.455Z,98599.66
2023-01-09T08:41:42.754Z,98600.09
2023-01-09T08:44:27.994Z,98598.13
2023-01-09T08:47:06.729Z,98603.53
2023-01-09T08:49:38.171Z,98601.50
2023-01-09T08:52:06.293Z,98606.59
2023-01-09T08:54:33.086Z,98596.88
2023-01-09T08:56:59.815Z,98617.25
2023-01-09T08:59:26.577Z,98612.63
2023-01-09T09:01:53.306Z,98624.53
2023-01-09T09:04:20.344Z,98608.22
2023-01-09T09:06:47.112Z,98602.09
2023-01-09T09:09:13.917Z,98610.78
2023-01-09T09:11:40.684Z,98607.06
2023-01-09T09:14:26.490Z,98606.09
2023-01-09T09:16:53.663Z,98599.84
2023-01-09T09:19:20.594Z,98605.38
2023-01-09T09:21:47.409Z,98606.94
2023-01-09T09:24:14.105Z,98604.81
2023-01-09T09:26:42.206Z,98608.78
2023-01-09T09:29:10.319Z,98603.69
2023-01-09T09:31:40.924Z,98610.09
2023-01-09T09:34:07.819Z,98611.34
2023-01-09T09:36:34.974Z,98613.47
2023-01-09T09:39:02.820Z,98620.56
2023-01-09T09:42:14.378Z,98623.72
2023-01-09T09:44:59.852Z,98620.31
2023-01-09T09:47:29.710Z,98621.28
2023-01-09T09:50:41.645Z,98630.09
2023-01-09T09:53:30.749Z,98633.38
2023-01-09T09:55:57.828Z,98621.13
2023-01-09T09:58:40.154Z,98626.78
2023-01-09T10:01:08.558Z,98632.50
2023-01-09T10:03:55.594Z,98638.03
2023-01-09T10:06:29.555Z,98640.31
2023-01-09T10:09:05.786Z,98644.56
2023-01-09T10:11:44.565Z,98648.13
2023-01-09T10:14:23.314Z,98648.69
2023-01-09T10:17:24.461Z,98651.97
2023-01-09T10:20:06.432Z,98642.41
2023-01-09T10:22:39.068Z,98656.22
2023-01-09T10:25:08.606Z,98659.63
2023-01-09T10:27:59.639Z,98662.06
2023-01-09T10:30:43.125Z,98660.59
2023-01-09T10:33:32.226Z,98655.91
2023-01-09T10:36:28.512Z,98663.31
2023-01-09T10:39:00.165Z,98666.84
2023-01-09T10:41:54.558Z,98687.88
2023-01-09T10:44:38.685Z,98701.53
2023-01-09T10:47:18.755Z,98701.69
2023-01-09T10:49:47.842Z,98711.66
2023-01-09T10:52:20.664Z,98726.41
2023-01-09T10:55:01.721Z,98721.56
2023-01-09T10:57:42.033Z,98730.94
2023-01-09T11:00:21.598Z,98732.94
2023-01-09T11:02:49.941Z,98740.47
2023-01-09T11:05:25.561Z,98743.59
2023-01-09T11:08:13.872Z,98746.16
2023-01-09T11:10:58.133Z,98746.47
2023-01-09T11:13:36.570Z,98756.97
2023-01-09T11:16:10.949Z,98772.59
2023-01-09T11:18:49.644Z,98785.09
2023-01-09T11:21:42.869Z,98782.38
2023-01-09T11:24:27.936Z,98801.13
2023-01-09T11:27:14.609Z,98814.31
2023-01-09T11:29:42.691Z,98816.91
2023-01-09T11:32:24.010Z,98816.78
2023-01-09T11:34:50.704Z,98822.88
2023-01-09T11:37:35.663Z,98819.81
2023-01-09T11:40:02.563Z,98847.75
2023-01-09T11:42:48.842Z,98852.03
2023-01-09T11:45:21.350Z,98855.72
2023-01-09T11:47:48.325Z,98871.31
2023-01-09T11:50:24.997Z,98869.44
2023-01-09T11:53:15.433Z,98880.84
2023-01-09T11:55:43.761Z,98879.69
2023-01-09T11:58:18.844Z,98882.50
2023-01-09T12:01:09.217Z,98901.50
2023-01-09T12:04:10.149Z,98897.38
2023-01-09T12:06:49.238Z,98906.66
2023-01-09T12:09:55.034Z,98905.94
2023-01-09T12:12:36.744Z,98914.72
2023-01-09T12:15:38.174Z,98914.72
2023-01-09T12:18:26.676Z,98914.97
2023-01-09T12:21:17.081Z,98926.88
2023-01-09T12:23:55.010Z,98928.47
2023-01-09T12:26:26.742Z,98929.00
2023-01-09T12:29:13.162Z,98936.59
2023-01-09T12:32:10.920Z,98934.69
2023-01-09T12:35:09.803Z,98931.44
2023-01-09T12:37:55.205Z,98936.16
2023-01-09T12:40:30.843Z,98942.78
2023-01-09T12:43:24.875Z,98938.53
2023-01-09T12:46:03.540Z,98943.31
2023-01-09T12:48:30.188Z,98946.75
2023-01-09T12:51:30.527Z,98946.56
2023-01-09T12:54:05.961Z,98951.88
2023-01-09T12:56:37.875Z,98949.59
2023-01-09T12:59:16.637Z,98961.91
2023-01-09T13:01:46.915Z,98965.78
2023-01-09T13:04:23.160Z,98969.72
2023-01-09T13:06:56.606Z,98956.81
2023-01-09T13:09:32.995Z,98959.69
2023-01-09T13:12:08.914Z,98967.47
2023-01-09T13:14:47.643Z,98973.06
2023-01-09T13:17:57.599Z,98973.19
2023-01-09T13:20:47.984Z,98978.19
2023-01-09T13:23:54.629Z,98980.91
2023-01-09T13:26:49.203Z,99003.66
2023-01-09T13:29:27.033Z,99002.66
2023-01-09T13:32:03.180Z,99015.19
2023-01-09T13:34:33.051Z,99013.13
2023-01-09T13:37:00.871Z,99005.56
2023-01-09T13:39:35.266Z,99022.28
2023-01-09T13:42:25.440Z,99024.09
2023-01-09T13:44:56.068Z,99025.09
2023-01-09T13:47:28.606Z,99026.69
2023-01-09T13:50:01.851Z,99038.78
2023-01-09T13:52:39.151Z,99041.25
2023-01-09T13:55:11.713Z,99048.22
2023-01-09T13:57:42.877Z,99050.25
2023-01-09T14:00:12.785Z,99058.28
2023-01-09T14:02:39.429Z,99073.88
2023-01-09T14:05:09.184Z,99081.03
2023-01-09T14:07:42.864Z,99082.19
2023-01-09T14:10:28.692Z,99082.63
2023-01-09T14:12:57.899Z,99091.66
2023-01-09T14:15:39.509Z,99097.38
2023-01-09T14:18:15.313Z,99106.47
2023-01-09T14:20:46.662Z,99114.25
2023-01-09T14:23:45.917Z,99129.31
2023-01-09T14:26:24.536Z,99133.00
2023-01-09T14:28:51.600Z,99137.66
2023-01-09T14:31:33.038Z,99155.25
2023-01-09T14:34:31.133Z,99169.22
2023-01-09T14:37:01.498Z,99176.06
2023-01-09T14:39:32.041Z,99176.69
2023-01-09T14:42:07.864Z,99186.78
2023-01-09T14:44:43.403Z,99181.63
2023-01-09T14:47:10.149Z,99192.16
2023-01-09T14:49:45.150Z,99198.34
2023-01-09T14:52:31.015Z,99205.75
2023-01-09T14:55:03.436Z,99219.25
2023-01-09T14:57:34.086Z,99222.94
2023-01-09T15:00:01.905Z,99230.16
2023-01-09T15:02:34.116Z,99226.34
2023-01-09T15:05:09.457Z,99237.97
2023-01-09T15:07:44.338Z,99230.63
2023-01-09T15:10:26.419Z,99243.78
2023-01-09T15:12:55.463Z,99246.34
2023-01-09T15:15:22.961Z,99257.03
2023-01-09T15:17:56.927Z,99257.03
2023-01-09T15:20:28.919Z,99260.81
2023-01-09T15:22:56.897Z,99270.03
2023-01-09T15:25:33.823Z,99272.09
2023-01-09T15:28:26.321Z,99279.34
2023-01-09T15:31:00.936Z,99273.19
2023-01-09T15:33:28.051Z,99280.31
2023-01-09T15:36:00.323Z,99273.31
2023-01-09T15:38:29.307Z,99281.31
2023-01-09T15:41:09.273Z,99283.38
2023-01-09T15:43:40.946Z,99284.50
2023-01-09T15:46:07.944Z,99293.81
2023-01-09T15:48:36.052Z,99285.47
2023-01-09T15:51:06.699Z,99294.81
2023-01-09T15:53:34.249Z,99305.13
2023-01-09T15:56:05.782Z,99309.88
2023-01-09T15:58:36.224Z,99305.38
2023-01-09T16:01:24.635Z,99313.47
2023-01-09T16:03:52.273Z,99319.94
2023-01-09T16:06:31.438Z,99318.72
2023-01-09T16:09:00.149Z,99327.19
2023-01-09T16:11:39.492Z,99337.22
2023-01-09T16:14:18.228Z,99337.22
2023-01-09T16:16:46.140Z,99344.81
2023-01-09T16:19:32.404Z,99352.66
2023-01-09T16:22:02.486Z,99355.97
2023-01-09T16:24:40.368Z,99350.19
2023-01-09T16:27:26.593Z,99357.53
2023-01-09T16:29:57.979Z,99372.97
2023-01-09T16:32:45.651Z,99371.50
2023-01-09T16:35:18.279Z,99373.34
2023-01-09T16:37:45.055Z,99368.41
2023-01-09T16:40:24.290Z,99370.25
2023-01-09T16:43:05.525Z,99367.66
2023-01-09T16:45:37.989Z,99374.50
2023-01-09T16:48:16.435Z,99373.00
2023-01-09T16:50:44.170Z,99375.72
2023-01-09T16:53:22.633Z,99378.31
2023-01-09T16:55:50.112Z,99386.16
2023-01-09T16:58:23.719Z,99384.81
2023-01-09T17:00:50.651Z,99381.03
2023-01-09T17:03:17.815Z,99384.19
2023-01-09T17:05:44.793Z,99380.00
2023-01-09T17:08:33.993Z,99380.72
2023-01-09T17:11:00.929Z,99382.47
2023-01-09T17:13:28.045Z,99393.63
2023-01-09T17:15:56.640Z,99385.19
2023-01-09T17:18:25.220Z,99395.88
2023-01-09T17:20:57.201Z,99388.63
2023-01-09T17:23:25.908Z,99402.78
2023-01-09T17:26:15.891Z,99386.84
2023-01-09T17:28:51.110Z,99388.44
2023-01-09T17:31:18.459Z,99381.13
2023-01-09T17:33:45.179Z,99383.00
2023-01-09T17:36:32.202Z,99383.50
2023-01-09T17:38:59.512Z,99385.13
2023-01-09T17:41:31.143Z,99393.44
2023-01-09T17:43:59.516Z,99395.75
2023-01-09T17:46:32.153Z,99399.41
2023-01-09T17:49:00.228Z,99392.56
2023-01-09T17:51:28.146Z,99393.31
2023-01-09T17:53:55.387Z,99392.22
2023-01-09T17:56:34.898Z,99387.91
2023-01-09T17:59:01.537Z,99392.97
2023-01-09T18:01:28.231Z,99391.13
2023-01-09T18:03:55.152Z,99376.78
2023-01-09T18:06:22.398Z,99377.53
2023-01-09T18:08:49.363Z,99384.25
2023-01-09T18:11:18.844Z,99378.13
2023-01-09T18:13:46.955Z,99382.06
2023-01-09T18:16:16.836Z,99381.44
2023-01-09T18:18:45.154Z,99374.44
2023-01-09T18:21:15.875Z,99364.16
2023-01-09T18:23:42.603Z,99376.91
2023-01-09T18:26:10.683Z,99373.09
2023-01-09T18:28:38.991Z,99375.41
2023-01-09T18:31:06.458Z,99381.28
2023-01-09T18:33:33.276Z,99388.94
2023-01-09T18:36:10.353Z,99400.16
2023-01-09T18:38:37.045Z,99386.38
2023-01-09T18:41:05.046Z,99393.72
2023-01-09T18:43:32.228Z,99403.13
2023-01-09T18:45:59.106Z,99402.75
2023-01-09T18:48:26.793Z,99411.44
2023-01-09T18:51:05.548Z,99415.09
2023-01-09T18:53:33.062Z,99415.00
2023-01-09T18:56:04.535Z,99409.28
2023-01-09T18:58:33.891Z,99414.72
2023-01-09T19:01:01.577Z,99396.66
2023-01-09T19:03:28.770Z,99398.63
2023-01-09T19:06:00.045Z,99399.34
2023-01-09T19:08:30.327Z,99400.56
2023-01-09T19:10:57.694Z,99405.06
2023-01-09T19:13:25.502Z,99402.56
2023-01-09T19:15:56.584Z,99404.53
2023-01-09T19:18:25.085Z,99402.69
2023-01-09T19:20:52.867Z,99402.59
2023-01-09T19:23:20.798Z,99394.03
2023-01-09T19:25:47.807Z,99399.56
2023-01-09T19:28:14.874Z,99395.75
2023-01-09T19:30:42.114Z,99402.59
2023-01-09T19:33:11.063Z,99415.75
2023-01-09T19:35:38.366Z,99413.19
2023-01-09T19:38:06.018Z,99415.88
2023-01-09T19:40:32.832Z,99430.88
2023-01-09T19:42:59.563Z,99433.88
2023-01-09T19:45:26.431Z,99433.72
2023-01-09T19:47:53.266Z,99426.06
2023-01-09T19:50:20.086Z,99431.59
2023-01-09T19:52:46.806Z,99426.84
2023-01-09T19:55:14.299Z,99423.06
2023-01-09T19:57:42.907Z,99416.47
2023-01-09T20:00:14.633Z,99415.34
2023-01-09T20:02:42.080Z,99417.31
2023-01-09T20:05:09.814Z,99420.41
2023-01-09T20:07:36.720Z,99411.19
2023-01-09T20:10:04.124Z,99409.16
2023-01-09T20:12:32.425Z,99411.47
2023-01-09T20:14:59.251Z,99421.41
2023-01-09T20:17:26.090Z,99428.38
2023-01-09T20:19:52.785Z,99430.91
2023-01-09T20:22:19.591Z,99437.03
2023-01-09T20:24:46.767Z,99436.06
2023-01-09T20:27:13.532Z,99432.16
2023-01-09T20:29:40.398Z,99447.19
2023-01-09T20:32:08.673Z,99441.53
2023-01-09T20:34:35.431Z,99456.06
2023-01-09T20:37:02.129Z,99450.69
2023-01-09T20:39:28.810Z,99454.25
2023-01-09T20:41:55.612Z,99445.19
2023-01-09T20:44:22.343Z,99452.78
2023-01-09T20:46:49.369Z,99450.78
2023-01-09T20:49:18.351Z,99454.25
2023-01-09T20:51:50.422Z,99450.59
2023-01-09T20:54:18.757Z,99450.34
2023-01-09T20:56:45.459Z,99449.25
2023-01-09T20:59:14.893Z,99444.16
2023-01-09T21:01:41.612Z,99444.53
2023-01-09T21:04:08.927Z,99452.88
2023-01-09T21:06:36.271Z,99444.69
2023-01-09T21:09:04.408Z,99453.16
2023-01-09T21:11:31.505Z,99458.44
2023-01-09T21:13:58.236Z,99459.78
2023-01-09T21:16:25.621Z,99457.00
2023-01-09T21:18:54.494Z,99459.53
2023-01-09T21:21:24.740Z,99451.75
2023-01-09T21:23:56.624Z,99454.22
2023-01-09T21:26:27.557Z,99454.44
2023-01-09T21:28:56.048Z,99452.84
2023-01-09T21:31:26.364Z,99453.34
2023-01-09T21:33:55.990Z,99449.19
2023-01-09T21:36:22.905Z,99452.63
2023-01-09T21:38:52.095Z,99460.84
2023-01-09T21:41:39.417Z,99464.03
2023-01-09T21:44:25.097Z,99462.94
2023-01-09T21:46:51.970Z,99474.34
2023-01-09T21:49:25.369Z,99470.41
2023-01-09T21:51:55.832Z,99473.59
2023-01-09T21:54:23.563Z,99476.66
2023-01-09T21:56:51.319Z,99478.38
2023-01-09T21:59:18.611Z,99482.19
2023-01-09T22:01:45.747Z,99479.81
2023-01-09T22:04:14.778Z,99488.41
2023-01-09T22:06:41.901Z,99498.47
2023-01-09T22:09:10.041Z,99493.31
2023-01-09T22:11:38.236Z,99496.75
2023-01-09T22:14:05.188Z,99502.78
2023-01-09T22:16:31.974Z,99503.53
2023-01-09T22:18:58.892Z,99509.25
2023-01-09T22:21:25.999Z,99515.53
2023-01-09T22:23:53.096Z,99518.72
2023-01-09T22:26:20.378Z,99527.50
2023-01-09T22:28:48.505Z,99522.13
2023-01-09T22:31:21.184Z,99521.00
2023-01-09T22:33:52.866Z,99522.13
2023-01-09T22:36:20.231Z,99526.06
2023-01-09T22:38:47.177Z,99527.28
2023-01-09T22:41:14.312Z,99536.78
2023-01-09T22:43:41.161Z,99540.81
2023-01-09T22:46:11.322Z,99543.50
2023-01-09T22:48:38.871Z,99549.75
2023-01-09T22:51:08.424Z,99555.88
2023-01-09T22:53:35.343Z,99552.28
2023-01-09T22:56:04.683Z,99557.69
2023-01-09T22:58:32.270Z,99566.03
2023-01-09T23:00:59.419Z,99570.22
2023-01-09T23:03:26.913Z,99567.03
2023-01-09T23:06:07.960Z,99561.41
2023-01-09T23:08:36.808Z,99567.53
2023-01-09T23:11:06.504Z,99568.50
2023-01-09T23:13:33.322Z,99573.63
2023-01-09T23:16:00.198Z,99581.72
2023-01-09T23:18:26.915Z,99581.25
2023-01-09T23:21:00.086Z,99573.63
2023-01-09T23:23:28.488Z,99588.31
2023-01-09T23:26:00.228Z,99588.56
2023-01-09T23:28:27.868Z,99584.75
2023-01-09T23:30:54.918Z,99582.44
2023-01-09T23:33:21.714Z,99587.50
2023-01-09T23:35:49.109Z,99588.03
2023-01-09T23:38:16.371Z,99586.75
2023-01-09T23:40:43.464Z,99598.25
2023-01-09T23:43:11.888Z,99600.41
2023-01-09T23:45:41.252Z,99606.03
2023-01-09T23:48:10.445Z,99606.56
2023-01-09T23:50:37.373Z,99610.28
2023-01-09T23:53:05.218Z,99607.53
2023-01-09T23:55:32.086Z,99614.41
2023-01-09T23:57:58.815Z,99607.50
